sensor_id;sensor_type;location;lat;lon;timestamp;pressure;altitude;pressure_sealevel;temperature;humidity
71465;BME280;59274;49.874;9.154;2023-05-10T00:01:55;99543.75;;;14.62;100.00
71465;BME280;59274;49.874;9.154;2023-05-10T00:04:21;99550.25;;;14.44;100.00
71465;BME280;59274;49.874;9.154;2023-05-10T00:06:46;99559.50;;;14.27;100.00
71465;BME280;59274;49.874;9.154;2023-05-10T00:09:12;99561.56;;;14.20;100.00
71465;BME280;59274;49.874;9.154;2023-05-10T00:11:37;99553.25;;;14.27;100.00
71465;BME280;59274;49.874;9.154;2023-05-10T00:14:03;99563.50;;;14.19;100.00
71465;BME280;59274;49.874;9.154;2023-05-10T00:16:28;99562.75;;;14.19;100.00
71465;BME280;59274;49.874;9.154;2023-05-10T00:18:54;99565.50;;;14.15;100.00
71465;BME280;59274;49.874;9.154;2023-05-10T00:21:19;99566.69;;;14.14;100.00
71465;BME280;59274;49.874;9.154;2023-05-10T00:23:45;99560.63;;;14.03;100.00
71465;BME280;59274;49.874;9.154;2023-05-10T00:26:10;99569.19;;;14.05;100.00
71465;BME280;59274;49.874;9.154;2023-05-10T00:28:36;99564.34;;;13.86;100.00
71465;BME280;59274;49.874;9.154;2023-05-10T00:31:02;99565.66;;;13.78;100.00
71465;BME280;59274;49.874;9.154;2023-05-10T00:33:27;99568.31;;;13.81;100.00
71465;BME280;59274;49.874;9.154;2023-05-10T00:35:53;99569.75;;;13.62;100.00
71465;BME280;59274;49.874;9.154;2023-05-10T00:38:18;99576.09;;;13.52;100.00
71465;BME280;59274;49.874;9.154;2023-05-10T00:40:44;99577.69;;;13.50;100.00
71465;BME280;59274;49.874;9.154;2023-05-10T00:43:09;99576.16;;;13.45;100.00
71465;BME280;59274;49.874;9.154;2023-05-10T00:45:35;99576.31;;;13.35;100.00
71465;BME280;59274;49.874;9.154;2023-05-10T00:48:02;99581.88;;;13.24;100.00
71465;BME280;59274;49.874;9.154;2023-05-10T00:50:29;99577.66;;;13.16;100.00
71465;BME280;59274;49.874;9.154;2023-05-10T00:52:55;99584.72;;;13.13;100.00
71465;BME280;59274;49.874;9.154;2023-05-10T00:55:20;99580.44;;;13.09;100.00
71465;BME280;59274;49.874;9.154;2023-05-10T00:57:47;99587.09;;;13.04;100.00
71465;BME280;59274;49.874;9.154;2023-05-10T01:00:12;99582.44;;;13.01;100.00
71465;BME280;59274;49.874;9.154;2023-05-10T01:02:43;99585.09;;;13.08;100.00
71465;BME280;59274;49.874;9.154;2023-05-10T01:05:09;99579.25;;;13.10;100.00
71465;BME280;59274;49.874;9.154;2023-05-10T01:07:34;99585.41;;;13.21;100.00
71465;BME280;59274;49.874;9.154;2023-05-10T01:10:00;99583.09;;;13.19;100.00
71465;BME280;59274;49.874;9.154;2023-05-10T01:12:25;99580.31;;;13.23;100.00
71465;BME280;59274;49.874;9.154;2023-05-10T01:14:51;99588.22;;;13.10;100.00
71465;BME280;59274;49.874;9.154;2023-05-10T01:17:17;99580.03;;;13.10;100.00
71465;BME280;59274;49.874;9.154;2023-05-10T01:19:42;99588.16;;;13.17;100.00
71465;BME280;59274;49.874;9.154;2023-05-10T01:27:57;99591.59;;;13.25;100.00
71465;BME280;59274;49.874;9.154;2023-05-10T01:33:25;99591.31;;;13.12;100.00
71465;BME280;59274;49.874;9.154;2023-05-10T01:36:05;99587.06;;;13.08;100.00
71465;BME280;59274;49.874;9.154;2023-05-10T01:38:49;99597.75;;;12.88;100.00
71465;BME280;59274;49.874;9.154;2023-05-10T01:41:28;99591.59;;;12.80;100.00
71465;BME280;59274;49.874;9.154;2023-05-10T01:46:35;99606.09;;;12.70;100.00
71465;BME280;59274;49.874;9.154;2023-05-10T01:49:03;99604.13;;;12.74;100.00
71465;BME280;59274;49.874;9.154;2023-05-10T01:51:39;99608.06;;;12.70;100.00
71465;BME280;59274;49.874;9.154;2023-05-10T01:54:07;99607.28;;;12.66;100.00
71465;BME280;59274;49.874;9.154;2023-05-10T01:56:35;99613.09;;;12.71;100.00
71465;BME280;59274;49.874;9.154;2023-05-10T01:59:03;99612.72;;;12.66;100.00
71465;BME280;59274;49.874;9.154;2023-05-10T02:01:29;99613.91;;;12.65;100.00
71465;BME280;59274;49.874;9.154;2023-05-10T02:03:56;99626.34;;;12.69;100.00
71465;BME280;59274;49.874;9.154;2023-05-10T02:06:23;99619.34;;;12.68;100.00
71465;BME280;59274;49.874;9.154;2023-05-10T02:08:51;99621.28;;;12.68;100.00
71465;BME280;59274;49.874;9.154;2023-05-10T02:11:18;99621.34;;;12.64;100.00
71465;BME280;59274;49.874;9.154;2023-05-10T02:13:48;99619.78;;;12.60;100.00
71465;BME280;59274;49.874;9.154;2023-05-10T02:16:16;99625.22;;;12.63;100.00
71465;BME280;59274;49.874;9.154;2023-05-10T02:18:42;99628.34;;;12.62;100.00
71465;BME280;59274;49.874;9.154;2023-05-10T02:21:10;99633.03;;;12.61;100.00
71465;BME280;59274;49.874;9.154;2023-05-10T02:23:36;99635.34;;;12.59;100.00
71465;BME280;59274;49.874;9.154;2023-05-10T02:26:02;99634.63;;;12.55;100.00
71465;BME280;59274;49.874;9.154;2023-05-10T02:28:32;99630.34;;;12.54;100.00
71465;BME280;59274;49.874;9.154;2023-05-10T02:30:58;99634.63;;;12.55;100.00
71465;BME280;59274;49.874;9.154;2023-05-10T02:33:24;99630.75;;;12.52;100.00
71465;BME280;59274;49.874;9.154;2023-05-10T02:35:50;99637.75;;;12.53;100.00
71465;BME280;59274;49.874;9.154;2023-05-10T02:38:18;99633.84;;;12.51;100.00
71465;BME280;59274;49.874;9.154;2023-05-10T02:40:46;99628.06;;;12.49;100.00
71465;BME280;59274;49.874;9.154;2023-05-10T02:43:14;99638.19;;;12.45;100.00
71465;BME280;59274;49.874;9.154;2023-05-10T02:45:43;99637.00;;;12.46;100.00
71465;BME280;59274;49.874;9.154;2023-05-10T02:48:12;99634.69;;;12.44;100.00
71465;BME280;59274;49.874;9.154;2023-05-10T02:50:39;99638.56;;;12.47;100.00
71465;BME280;59274;49.874;9.154;2023-05-10T02:53:10;99638.56;;;12.47;100.00
71465;BME280;59274;49.874;9.154;2023-05-10T02:55:40;99646.75;;;12.43;100.00
71465;BME280;59274;49.874;9.154;2023-05-10T02:58:07;99639.72;;;12.46;100.00
71465;BME280;59274;49.874;9.154;2023-05-10T03:00:32;99637.81;;;12.43;100.00
71465;BME280;59274;49.874;9.154;2023-05-10T03:02:58;99644.03;;;12.43;100.00
71465;BME280;59274;49.874;9.154;2023-05-10T03:05:23;99637.06;;;12.42;100.00
71465;BME280;59274;49.874;9.154;2023-05-10T03:07:49;99641.34;;;12.40;100.00
71465;BME280;59274;49.874;9.154;2023-05-10T03:10:15;99644.50;;;12.35;100.00
71465;BME280;59274;49.874;9.154;2023-05-10T03:18:22;99648.00;;;12.32;100.00
71465;BME280;59274;49.874;9.154;2023-05-10T03:20:50;99644.88;;;12.33;100.00
71465;BME280;59274;49.874;9.154;2023-05-10T03:23:27;99647.56;;;12.37;100.00
71465;BME280;59274;49.874;9.154;2023-05-10T03:25:52;99661.97;;;12.37;100.00
71465;BME280;59274;49.874;9.154;2023-05-10T03:28:19;99664.69;;;12.41;100.00
71465;BME280;59274;49.874;9.154;2023-05-10T03:30:46;99657.69;;;12.40;100.00
71465;BME280;59274;49.874;9.154;2023-05-10T03:33:11;99661.13;;;12.44;100.00
71465;BME280;59274;49.874;9.154;2023-05-10T03:35:38;99657.63;;;12.43;100.00
71465;BME280;59274;49.874;9.154;2023-05-10T03:38:04;99659.97;;;12.45;100.00
71465;BME280;59274;49.874;9.154;2023-05-10T03:40:29;99670.47;;;12.50;100.00
71465;BME280;59274;49.874;9.154;2023-05-10T03:42:57;99670.88;;;12.45;100.00
71465;BME280;59274;49.874;9.154;2023-05-10T03:45:23;99675.91;;;12.46;100.00
71465;BME280;59274;49.874;9.154;2023-05-10T03:47:48;99671.22;;;12.50;100.00
71465;BME280;59274;49.874;9.154;2023-05-10T03:50:14;99673.94;;;12.54;100.00
71465;BME280;59274;49.874;9.154;2023-05-10T03:52:39;99675.13;;;12.46;100.00
71465;BME280;59274;49.874;9.154;2023-05-10T03:55:05;99678.59;;;12.53;100.00
71465;BME280;59274;49.874;9.154;2023-05-10T03:57:31;99676.66;;;12.54;100.00
71465;BME280;59274;49.874;9.154;2023-05-10T03:59:56;99683.66;;;12.55;100.00
71465;BME280;59274;49.874;9.154;2023-05-10T04:02:22;99679.34;;;12.57;100.00
71465;BME280;59274;49.874;9.154;2023-05-10T04:04:47;99685.56;;;12.58;100.00
71465;BME280;59274;49.874;9.154;2023-05-10T04:07:13;99682.03;;;12.65;100.00
71465;BME280;59274;49.874;9.154;2023-05-10T04:09:39;99682.44;;;12.60;100.00
71465;BME280;59274;49.874;9.154;2023-05-10T04:12:05;99677.00;;;12.60;100.00
71465;BME280;59274;49.874;9.154;2023-05-10T04:14:30;99682.84;;;12.62;100.00
71465;BME280;59274;49.874;9.154;2023-05-10T04:16:56;99685.47;;;12.76;100.00
71465;BME280;59274;49.874;9.154;2023-05-10T04:19:21;99680.03;;;12.72;100.00
71465;BME280;59274;49.874;9.154;2023-05-10T04:21:47;99692.47;;;12.73;100.00
71465;BME280;59274;49.874;9.154;2023-05-10T04:24:12;99685.13;;;12.70;100.00
71465;BME280;59274;49.874;9.154;2023-05-10T04:26:37;99688.19;;;12.76;100.00
71465;BME280;59274;49.874;9.154;2023-05-10T04:29:03;99692.13;;;12.71;100.00
71465;BME280;59274;49.874;9.154;2023-05-10T04:31:28;99695.16;;;12.80;100.00
71465;BME280;59274;49.874;9.154;2023-05-10T04:33:54;99703.72;;;12.82;100.00
71465;BME280;59274;49.874;9.154;2023-05-10T04:36:19;99702.91;;;12.85;100.00
71465;BME280;59274;49.874;9.154;2023-05-10T04:38:44;99705.22;;;12.90;100.00
71465;BME280;59274;49.874;9.154;2023-05-10T04:41:10;99711.00;;;12.96;100.00
71465;BME280;59274;49.874;9.154;2023-05-10T04:43:37;99709.44;;;12.99;100.00
71465;BME280;59274;49.874;9.154;2023-05-10T04:46:03;99712.13;;;13.06;100.00
71465;BME280;59274;49.874;9.154;2023-05-10T04:48:29;99715.97;;;13.12;100.00
71465;BME280;59274;49.874;9.154;2023-05-10T04:50:55;99708.97;;;13.14;100.00
71465;BME280;59274;49.874;9.154;2023-05-10T04:53:20;99708.09;;;13.24;100.00
71465;BME280;59274;49.874;9.154;2023-05-10T04:55:46;99717.84;;;13.22;100.00
71465;BME280;59274;49.874;9.154;2023-05-10T04:58:12;99711.97;;;13.27;100.00
71465;BME280;59274;49.874;9.154;2023-05-10T05:00:37;99712.75;;;13.27;100.00
71465;BME280;59274;49.874;9.154;2023-05-10T05:03:03;99719.72;;;13.32;100.00
71465;BME280;59274;49.874;9.154;2023-05-10T05:05:28;99714.25;;;13.32;100.00
71465;BME280;59274;49.874;9.154;2023-05-10T05:07:53;99722.81;;;13.34;100.00
71465;BME280;59274;49.874;9.154;2023-05-10T05:10:19;99723.59;;;13.31;100.00
71465;BME280;59274;49.874;9.154;2023-05-10T05:12:44;99717.72;;;13.36;100.00
71465;BME280;59274;49.874;9.154;2023-05-10T05:15:10;99725.50;;;13.38;100.00
71465;BME280;59274;49.874;9.154;2023-05-10T05:17:36;99729.88;;;13.28;100.00
71465;BME280;59274;49.874;9.154;2023-05-10T05:20:02;99729.84;;;13.31;100.00
71465;BME280;59274;49.874;9.154;2023-05-10T05:22:28;99743.41;;;13.39;100.00
71465;BME280;59274;49.874;9.154;2023-05-10T05:24:54;99739.91;;;13.42;100.00
71465;BME280;59274;49.874;9.154;2023-05-10T05:27:20;99743.88;;;13.30;100.00
71465;BME280;59274;49.874;9.154;2023-05-10T05:29:53;99743.09;;;13.29;100.00
71465;BME280;59274;49.874;9.154;2023-05-10T05:32:18;99740.78;;;13.28;100.00
71465;BME280;59274;49.874;9.154;2023-05-10T05:34:45;99743.53;;;13.28;100.00
71465;BME280;59274;49.874;9.154;2023-05-10T05:37:15;99748.22;;;13.24;100.00
71465;BME280;59274;49.874;9.154;2023-05-10T05:39:41;99745.09;;;13.22;100.00
71465;BME280;59274;49.874;9.154;2023-05-10T05:42:06;99754.00;;;13.33;100.00
71465;BME280;59274;49.874;9.154;2023-05-10T05:44:31;99745.44;;;13.31;100.00
71465;BME280;59274;49.874;9.154;2023-05-10T05:46:57;99752.09;;;13.26;100.00
71465;BME280;59274;49.874;9.154;2023-05-10T05:49:22;99747.47;;;13.20;100.00
71465;BME280;59274;49.874;9.154;2023-05-10T05:51:48;99757.94;;;13.25;100.00
71465;BME280;59274;49.874;9.154;2023-05-10T05:54:15;99756.78;;;13.26;100.00
71465;BME280;59274;49.874;9.154;2023-05-10T05:56:40;99762.56;;;13.31;100.00
71465;BME280;59274;49.874;9.154;2023-05-10T05:59:06;99767.63;;;13.33;100.00
71465;BME280;59274;49.874;9.154;2023-05-10T06:01:31;99765.63;;;13.37;100.00
71465;BME280;59274;49.874;9.154;2023-05-10T06:03:57;99767.19;;;13.38;100.00
71465;BME280;59274;49.874;9.154;2023-05-10T06:06:22;99776.53;;;13.37;100.00
71465;BME280;59274;49.874;9.154;2023-05-10T06:08:48;99782.88;;;13.27;100.00
71465;BME280;59274;49.874;9.154;2023-05-10T06:11:13;99778.19;;;13.27;100.00
71465;BME280;59274;49.874;9.154;2023-05-10T06:13:38;99775.41;;;13.35;100.00
71465;BME280;59274;49.874;9.154;2023-05-10T06:16:04;99773.94;;;13.23;100.00
71465;BME280;59274;49.874;9.154;2023-05-10T06:18:29;99779.28;;;13.37;100.00
71465;BME280;59274;49.874;9.154;2023-05-10T06:20:55;99783.50;;;13.45;100.00
71465;BME280;59274;49.874;9.154;2023-05-10T06:23:20;99780.66;;;13.59;100.00
71465;BME280;59274;49.874;9.154;2023-05-10T06:25:47;99788.44;;;13.61;100.00
71465;BME280;59274;49.874;9.154;2023-05-10T06:28:12;99789.53;;;13.70;100.00
71465;BME280;59274;49.874;9.154;2023-05-10T06:30:38;99794.94;;;13.78;100.00
71465;BME280;59274;49.874;9.154;2023-05-10T06:33:03;99795.00;;;13.67;100.00
71465;BME280;59274;49.874;9.154;2023-05-10T06:35:29;99795.38;;;13.69;100.00
71465;BME280;59274;49.874;9.154;2023-05-10T06:37:54;99800.41;;;13.74;100.00
71465;BME280;59274;49.874;9.154;2023-05-10T06:40:20;99801.91;;;13.79;100.00
71465;BME280;59274;49.874;9.154;2023-05-10T06:42:47;99796.09;;;13.77;100.00
71465;BME280;59274;49.874;9.154;2023-05-10T06:45:14;99804.63;;;13.82;100.00
71465;BME280;59274;49.874;9.154;2023-05-10T06:47:40;99799.53;;;13.84;100.00
71465;BME280;59274;49.874;9.154;2023-05-10T06:50:06;99805.34;;;13.86;100.00
71465;BME280;59274;49.874;9.154;2023-05-10T06:52:32;99800.31;;;13.85;100.00
71465;BME280;59274;49.874;9.154;2023-05-10T06:54:57;99805.78;;;13.85;100.00
71465;BME280;59274;49.874;9.154;2023-05-10T06:57:23;99806.03;;;13.97;100.00
71465;BME280;59274;49.874;9.154;2023-05-10T06:59:49;99810.19;;;14.13;100.00
71465;BME280;59274;49.874;9.154;2023-05-10T07:02:15;99804.97;;;14.25;100.00
71465;BME280;59274;49.874;9.154;2023-05-10T07:04:40;99803.66;;;14.37;100.00
71465;BME280;59274;49.874;9.154;2023-05-10T07:07:05;99802.69;;;14.54;100.00
71465;BME280;59274;49.874;9.154;2023-05-10T07:09:31;99809.38;;;14.80;100.00
71465;BME280;59274;49.874;9.154;2023-05-10T07:11:56;99810.91;;;14.84;100.00
71465;BME280;59274;49.874;9.154;2023-05-10T07:14:22;99803.78;;;14.91;100.00
71465;BME280;59274;49.874;9.154;2023-05-10T07:16:48;99806.16;;;14.88;100.00
71465;BME280;59274;49.874;9.154;2023-05-10T07:19:13;99816.31;;;14.88;100.00
71465;BME280;59274;49.874;9.154;2023-05-10T07:21:39;99811.63;;;14.88;100.00
71465;BME280;59274;49.874;9.154;2023-05-10T07:24:07;99812.81;;;14.87;100.00
71465;BME280;59274;49.874;9.154;2023-05-10T07:26:33;99823.16;;;14.73;100.00
71465;BME280;59274;49.874;9.154;2023-05-10T07:28:58;99813.47;;;14.65;100.00
71465;BME280;59274;49.874;9.154;2023-05-10T07:31:24;99820.22;;;14.87;100.00
71465;BME280;59274;49.874;9.154;2023-05-10T07:33:49;99818.34;;;14.84;100.00
71465;BME280;59274;49.874;9.154;2023-05-10T07:36:14;99820.69;;;15.12;100.00
71465;BME280;59274;49.874;9.154;2023-05-10T07:38:40;99827.63;;;15.17;100.00
71465;BME280;59274;49.874;9.154;2023-05-10T07:41:06;99818.44;;;15.31;100.00
71465;BME280;59274;49.874;9.154;2023-05-10T07:43:31;99816.59;;;15.24;100.00
71465;BME280;59274;49.874;9.154;2023-05-10T07:45:56;99819.59;;;15.33;100.00
71465;BME280;59274;49.874;9.154;2023-05-10T07:48:22;99823.09;;;15.34;100.00
71465;BME280;59274;49.874;9.154;2023-05-10T07:50:48;99826.50;;;15.41;100.00
71465;BME280;59274;49.874;9.154;2023-05-10T07:53:13;99828.19;;;15.58;100.00
71465;BME280;59274;49.874;9.154;2023-05-10T07:55:39;99825.94;;;15.50;100.00
71465;BME280;59274;49.874;9.154;2023-05-10T07:58:04;99825.88;;;15.57;100.00
71465;BME280;59274;49.874;9.154;2023-05-10T08:00:29;99821.63;;;15.52;100.00
71465;BME280;59274;49.874;9.154;2023-05-10T08:02:55;99830.56;;;15.56;100.00
71465;BME280;59274;49.874;9.154;2023-05-10T08:05:20;99827.47;;;15.78;100.00
71465;BME280;59274;49.874;9.154;2023-05-10T08:07:46;99830.56;;;15.80;100.00
71465;BME280;59274;49.874;9.154;2023-05-10T08:10:11;99829.81;;;15.79;100.00
71465;BME280;59274;49.874;9.154;2023-05-10T08:12:37;99839.19;;;15.78;100.00
71465;BME280;59274;49.874;9.154;2023-05-10T08:15:03;99835.03;;;15.93;100.00
71465;BME280;59274;49.874;9.154;2023-05-10T08:17:29;99830.88;;;15.85;100.00
71465;BME280;59274;49.874;9.154;2023-05-10T08:19:54;99827.81;;;16.03;100.00
71465;BME280;59274;49.874;9.154;2023-05-10T08:22:20;99840.38;;;16.00;100.00
71465;BME280;59274;49.874;9.154;2023-05-10T08:24:45;99837.88;;;16.10;100.00
71465;BME280;59274;49.874;9.154;2023-05-10T08:27:11;99845.19;;;16.16;100.00
71465;BME280;59274;49.874;9.154;2023-05-10T08:29:37;99840.84;;;16.19;100.00
71465;BME280;59274;49.874;9.154;2023-05-10T08:32:02;99849.16;;;16.35;100.00
71465;BME280;59274;49.874;9.154;2023-05-10T08:34:28;99852.88;;;16.44;100.00
71465;BME280;59274;49.874;9.154;2023-05-10T08:36:53;99848.09;;;16.49;100.00
71465;BME280;59274;49.874;9.154;2023-05-10T08:39:19;99857.41;;;16.74;100.00
71465;BME280;59274;49.874;9.154;2023-05-10T08:41:45;99856.66;;;16.74;100.00
71465;BME280;59274;49.874;9.154;2023-05-10T08:44:12;99865.72;;;16.91;100.00
71465;BME280;59274;49.874;9.154;2023-05-10T08:46:41;99860.34;;;17.03;100.00
71465;BME280;59274;49.874;9.154;2023-05-10T08:49:13;99865.41;;;16.85;100.00
71465;BME280;59274;49.874;9.154;2023-05-10T08:51:40;99861.91;;;16.65;100.00
71465;BME280;59274;49.874;9.154;2023-05-10T08:54:09;99864.41;;;16.56;99.40
71465;BME280;59274;49.874;9.154;2023-05-10T08:56:35;99860.31;;;16.67;100.00
71465;BME280;59274;49.874;9.154;2023-05-10T08:59:01;99871.78;;;16.39;100.00
71465;BME280;59274;49.874;9.154;2023-05-10T09:01:27;99868.06;;;16.49;100.00
71465;BME280;59274;49.874;9.154;2023-05-10T09:03:53;99873.22;;;16.47;100.00
71465;BME280;59274;49.874;9.154;2023-05-10T09:06:18;99870.81;;;16.49;100.00
71465;BME280;59274;49.874;9.154;2023-05-10T09:08:44;99876.16;;;16.56;99.31
71465;BME280;59274;49.874;9.154;2023-05-10T09:11:11;99873.25;;;16.67;100.00
71465;BME280;59274;49.874;9.154;2023-05-10T09:13:36;99878.97;;;16.92;100.00
71465;BME280;59274;49.874;9.154;2023-05-10T09:16:03;99881.56;;;16.99;97.27
71465;BME280;59274;49.874;9.154;2023-05-10T09:18:29;99878.56;;;16.94;98.44
71465;BME280;59274;49.874;9.154;2023-05-10T09:20:55;99882.03;;;16.98;97.40
71465;BME280;59274;49.874;9.154;2023-05-10T09:23:20;99887.38;;;17.21;97.02
71465;BME280;59274;49.874;9.154;2023-05-10T09:25:46;99889.66;;;17.06;96.42
71465;BME280;59274;49.874;9.154;2023-05-10T09:28:12;99889.03;;;16.99;96.15
71465;BME280;59274;49.874;9.154;2023-05-10T09:30:38;99896.28;;;17.09;96.10
71465;BME280;59274;49.874;9.154;2023-05-10T09:33:04;99892.06;;;16.84;97.95
71465;BME280;59274;49.874;9.154;2023-05-10T09:35:31;99889.13;;;16.75;98.48
71465;BME280;59274;49.874;9.154;2023-05-10T09:37:59;99889.63;;;16.90;99.80
71465;BME280;59274;49.874;9.154;2023-05-10T09:40:27;99887.19;;;16.53;98.11
71465;BME280;59274;49.874;9.154;2023-05-10T09:42:55;99889.22;;;16.49;98.19
71465;BME280;59274;49.874;9.154;2023-05-10T09:45:29;99895.84;;;16.51;99.65
71465;BME280;59274;49.874;9.154;2023-05-10T09:47:55;99893.56;;;16.69;99.75
71465;BME280;59274;49.874;9.154;2023-05-10T09:50:21;99901.94;;;16.82;97.79
71465;BME280;59274;49.874;9.154;2023-05-10T09:55:19;99897.63;;;17.37;97.99
71465;BME280;59274;49.874;9.154;2023-05-10T09:57:45;99905.03;;;17.40;96.13
71465;BME280;59274;49.874;9.154;2023-05-10T10:00:20;99908.28;;;17.51;96.21
71465;BME280;59274;49.874;9.154;2023-05-10T10:02:56;99899.06;;;17.25;94.75
71465;BME280;59274;49.874;9.154;2023-05-10T10:05:32;99906.28;;;17.19;96.00
71465;BME280;59274;49.874;9.154;2023-05-10T10:07:59;99900.13;;;17.31;95.34
71465;BME280;59274;49.874;9.154;2023-05-10T10:10:26;99889.41;;;17.37;94.49
71465;BME280;59274;49.874;9.154;2023-05-10T10:12:52;99892.28;;;17.66;91.22
71465;BME280;59274;49.874;9.154;2023-05-10T10:15:17;99897.13;;;17.58;91.96
71465;BME280;59274;49.874;9.154;2023-05-10T10:17:43;99895.88;;;17.63;92.33
71465;BME280;59274;49.874;9.154;2023-05-10T10:20:09;99888.09;;;17.61;92.33
71465;BME280;59274;49.874;9.154;2023-05-10T10:22:36;99891.44;;;17.85;93.21
71465;BME280;59274;49.874;9.154;2023-05-10T10:25:02;99893.59;;;17.61;89.99
71465;BME280;59274;49.874;9.154;2023-05-10T10:30:48;99891.09;;;17.67;92.65
71465;BME280;59274;49.874;9.154;2023-05-10T10:33:36;99895.25;;;17.55;88.66
71465;BME280;59274;49.874;9.154;2023-05-10T10:36:04;99902.41;;;17.85;88.51
71465;BME280;59274;49.874;9.154;2023-05-10T10:38:59;99894.47;;;18.19;89.37
71465;BME280;59274;49.874;9.154;2023-05-10T10:41:29;99893.81;;;18.15;84.65
71465;BME280;59274;49.874;9.154;2023-05-10T10:57:53;99906.78;;;15.01;100.00
71465;BME280;59274;49.874;9.154;2023-05-10T11:05:47;99922.88;;;14.20;100.00
71465;BME280;59274;49.874;9.154;2023-05-10T11:08:33;99926.38;;;14.17;100.00
71465;BME280;59274;49.874;9.154;2023-05-10T11:15:57;99923.72;;;14.10;100.00
71465;BME280;59274;49.874;9.154;2023-05-10T11:18:29;99921.38;;;14.08;100.00
71465;BME280;59274;49.874;9.154;2023-05-10T11:21:00;99918.19;;;14.17;100.00
71465;BME280;59274;49.874;9.154;2023-05-10T11:23:33;99919.28;;;14.27;100.00
71465;BME280;59274;49.874;9.154;2023-05-10T11:26:15;99916.13;;;14.28;100.00
71465;BME280;59274;49.874;9.154;2023-05-10T11:28:44;99923.41;;;14.45;100.00
71465;BME280;59274;49.874;9.154;2023-05-10T11:31:10;99922.88;;;14.61;100.00
71465;BME280;59274;49.874;9.154;2023-05-10T11:38:46;99921.06;;;15.73;100.00
71465;BME280;59274;49.874;9.154;2023-05-10T11:41:12;99924.53;;;16.00;100.00
71465;BME280;59274;49.874;9.154;2023-05-10T11:43:39;99928.41;;;16.26;100.00
71465;BME280;59274;49.874;9.154;2023-05-10T11:46:06;99928.50;;;16.65;100.00
71465;BME280;59274;49.874;9.154;2023-05-10T11:48:31;99930.28;;;16.75;100.00
71465;BME280;59274;49.874;9.154;2023-05-10T11:50:57;99933.78;;;16.96;100.00
71465;BME280;59274;49.874;9.154;2023-05-10T11:53:26;99935.88;;;17.28;100.00
71465;BME280;59274;49.874;9.154;2023-05-10T11:55:51;99945.38;;;17.59;100.00
71465;BME280;59274;49.874;9.154;2023-05-10T11:58:18;99940.00;;;17.72;100.00
71465;BME280;59274;49.874;9.154;2023-05-10T12:00:44;99947.09;;;17.89;100.00
71465;BME280;59274;49.874;9.154;2023-05-10T12:03:11;99945.53;;;18.04;100.00
71465;BME280;59274;49.874;9.154;2023-05-10T12:05:37;99940.38;;;17.74;100.00
71465;BME280;59274;49.874;9.154;2023-05-10T12:08:13;99941.34;;;17.28;100.00
71465;BME280;59274;49.874;9.154;2023-05-10T12:10:39;99935.53;;;16.66;100.00
71465;BME280;59274;49.874;9.154;2023-05-10T12:13:04;99951.69;;;16.37;100.00
71465;BME280;59274;49.874;9.154;2023-05-10T12:15:30;99959.56;;;16.12;100.00
71465;BME280;59274;49.874;9.154;2023-05-10T12:17:56;99950.19;;;15.86;100.00
71465;BME280;59274;49.874;9.154;2023-05-10T12:20:23;99954.06;;;15.89;100.00
71465;BME280;59274;49.874;9.154;2023-05-10T12:22:57;99954.88;;;15.86;100.00
71465;BME280;59274;49.874;9.154;2023-05-10T12:25:32;99954.22;;;15.78;100.00
71465;BME280;59274;49.874;9.154;2023-05-10T12:27:59;99950.44;;;15.95;100.00
71465;BME280;59274;49.874;9.154;2023-05-10T12:30:31;99955.81;;;16.02;100.00
71465;BME280;59274;49.874;9.154;2023-05-10T12:33:10;99947.72;;;16.19;100.00
71465;BME280;59274;49.874;9.154;2023-05-10T12:35:50;99948.66;;;16.55;100.00
71465;BME280;59274;49.874;9.154;2023-05-10T12:38:27;99949.47;;;16.52;100.00
71465;BME280;59274;49.874;9.154;2023-05-10T12:40:58;99957.19;;;16.61;100.00
71465;BME280;59274;49.874;9.154;2023-05-10T12:43:23;99963.38;;;16.41;100.00
71465;BME280;59274;49.874;9.154;2023-05-10T12:45:49;99962.00;;;16.30;100.00
71465;BME280;59274;49.874;9.154;2023-05-10T12:48:15;99960.44;;;16.29;100.00
71465;BME280;59274;49.874;9.154;2023-05-10T12:50:40;99957.97;;;16.38;100.00
71465;BME280;59274;49.874;9.154;2023-05-10T12:53:06;99954.72;;;16.43;100.00
71465;BME280;59274;49.874;9.154;2023-05-10T12:55:31;99957.19;;;16.61;100.00
71465;BME280;59274;49.874;9.154;2023-05-10T12:57:57;99955.78;;;16.72;100.00
71465;BME280;59274;49.874;9.154;2023-05-10T13:00:22;99958.41;;;17.19;98.69
71465;BME280;59274;49.874;9.154;2023-05-10T13:02:48;99963.03;;;17.62;93.19
71465;BME280;59274;49.874;9.154;2023-05-10T13:05:14;99957.03;;;17.99;90.70
71465;BME280;59274;49.874;9.154;2023-05-10T13:07:39;99957.88;;;18.45;89.00
71465;BME280;59274;49.874;9.154;2023-05-10T13:10:05;99961.44;;;18.74;86.59
71465;BME280;59274;49.874;9.154;2023-05-10T13:12:31;99963.31;;;19.18;85.40
71465;BME280;59274;49.874;9.154;2023-05-10T13:14:56;99957.13;;;19.56;84.33
71465;BME280;59274;49.874;9.154;2023-05-10T13:17:22;99956.38;;;19.93;78.26
71465;BME280;59274;49.874;9.154;2023-05-10T13:19:48;99947.75;;;19.91;78.76
71465;BME280;59274;49.874;9.154;2023-05-10T13:22:13;99951.34;;;20.39;80.78
71465;BME280;59274;49.874;9.154;2023-05-10T13:24:38;99950.00;;;20.44;78.11
71465;BME280;59274;49.874;9.154;2023-05-10T13:27:04;99949.72;;;20.04;77.08
71465;BME280;59274;49.874;9.154;2023-05-10T13:29:30;99942.16;;;19.95;80.77
71465;BME280;59274;49.874;9.154;2023-05-10T13:31:55;99946.31;;;20.00;84.07
71465;BME280;59274;49.874;9.154;2023-05-10T13:34:21;99945.41;;;20.15;79.96
71465;BME280;59274;49.874;9.154;2023-05-10T13:36:47;99949.72;;;20.63;79.33
71465;BME280;59274;49.874;9.154;2023-05-10T13:39:12;99946.88;;;20.54;78.53
71465;BME280;59274;49.874;9.154;2023-05-10T13:41:38;99955.09;;;20.45;77.20
71465;BME280;59274;49.874;9.154;2023-05-10T13:44:03;99947.25;;;20.31;65.55